createdAt,value
2023-01-19T00:08:27.120Z,81.62
2023-01-19T00:23:29.838Z,81.67
2023-01-19T00:38:46.925Z,81.78
2023-01-19T00:53:49.663Z,82.03
2023-01-19T01:08:52.319Z,82.01
2023-01-19T01:23:55.188Z,81.81
2023-01-19T01:38:58.891Z,81.58
2023-01-19T01:54:02.679Z,81.93
2023-01-19T02:09:29.525Z,81.59
2023-01-19T02:24:47.270Z,81.02
2023-01-19T02:39:57.972Z,80.97
2023-01-19T02:55:27.968Z,81.48
2023-01-19T03:10:53.035Z,81.79
2023-01-19T03:26:18.148Z,81.83
2023-01-19T03:41:24.838Z,81.71
2023-01-19T03:56:43.171Z,82.00
2023-01-19T04:11:46.207Z,82.22
2023-01-19T04:42:09.970Z,81.79
2023-01-19T04:57:12.731Z,81.71
2023-01-19T05:12:15.777Z,82.03
2023-01-19T05:27:18.474Z,82.16
2023-01-19T05:42:21.077Z,81.71
2023-01-19T05:57:24.436Z,82.39
2023-01-19T06:12:27.131Z,82.60
2023-01-19T06:31:13.548Z,81.74
2023-01-19T06:46:18.593Z,81.52
2023-01-19T07:01:22.976Z,81.78
2023-01-19T07:16:27.208Z,81.92
2023-01-19T07:31:31.641Z,81.43
2023-01-19T07:46:36.047Z,81.66
2023-01-19T08:01:41.536Z,81.98
2023-01-19T08:16:45.887Z,82.35
2023-01-19T08:31:50.285Z,81.69
2023-01-19T08:46:55.091Z,81.72
2023-01-19T09:01:59.941Z,82.28
2023-01-19T09:17:04.502Z,82.60
2023-01-19T09:32:11.671Z,82.07
2023-01-19T09:47:22.426Z,81.89
2023-01-19T10:02:44.836Z,82.25
2023-01-19T10:18:33.349Z,81.87
2023-01-19T10:33:42.550Z,81.51
2023-01-19T10:49:01.074Z,81.94
2023-01-19T11:04:30.133Z,81.71
2023-01-19T11:19:34.715Z,81.82
2023-01-19T11:34:39.452Z,81.78
2023-01-19T11:50:06.434Z,81.59
2023-01-19T12:20:50.575Z,81.58
2023-01-19T12:52:34.305Z,81.44
2023-01-19T13:08:05.547Z,81.24
2023-01-19T13:23:29.713Z,80.69
2023-01-19T13:38:34.061Z,80.55
2023-01-19T13:53:38.159Z,80.28
2023-01-19T14:09:20.604Z,80.81
2023-01-19T14:24:26.043Z,79.80
2023-01-19T14:39:35.003Z,79.41
2023-01-19T14:54:40.958Z,79.58
2023-01-19T15:25:22.881Z,80.38
2023-01-19T15:40:27.339Z,79.99
2023-01-19T16:10:49.811Z,79.78
2023-01-19T16:26:05.110Z,79.97
2023-01-19T16:56:28.982Z,80.14
2023-01-19T17:11:35.070Z,79.91
2023-01-19T17:26:39.495Z,79.76
2023-01-19T17:41:43.892Z,80.24
2023-01-19T17:56:48.453Z,80.64
2023-01-19T18:11:53.244Z,80.92
2023-01-19T18:26:57.809Z,80.40
2023-01-19T18:42:02.070Z,79.66
2023-01-19T18:57:06.476Z,79.68
2023-01-19T19:12:10.758Z,80.77
2023-01-19T19:27:14.915Z,80.81
2023-01-19T19:42:18.958Z,80.40
2023-01-19T19:57:23.284Z,80.24
2023-01-19T20:12:27.644Z,80.54
2023-01-19T20:27:31.860Z,80.72
2023-01-19T20:42:36.899Z,80.56
2023-01-19T20:57:41.040Z,79.46
2023-01-19T21:12:45.659Z,79.15
2023-01-19T21:27:50.973Z,79.41
2023-01-19T21:42:54.986Z,79.73
2023-01-19T21:57:59.334Z,79.89
2023-01-19T22:13:03.680Z,80.04
2023-01-19T22:28:08.541Z,79.23
2023-01-19T22:43:12.518Z,79.27
2023-01-19T22:58:16.401Z,79.27
2023-01-19T23:13:20.200Z,79.92
2023-01-19T23:28:39.357Z,79.98
2023-01-19T23:43:44.153Z,79.95
2023-01-19T23:59:06.866Z,79.64
